Time;durP1;ratioP1;P1;durP2;ratioP2;P2;SDS_P1;SDS_P2;PMS_P1;PMS_P2;Temp;Humidity;BMP_temperature;BMP_pressure;BME280_temperature;BME280_humidity;BME280_pressure;Samples;Min_cycle;Max_cycle;Signal;HPM_P1;HPM_P2
2023/07/02 00:01:58;;;;;;;0.40;0.40;;;;;;;15.13;100.00;97569.75;4876577;29;20084;-79
2023/07/02 00:04:25;;;;;;;0.40;0.40;;;;;;;15.12;100.00;97579.03;4875689;29;20061;-79
2023/07/02 00:06:52;;;;;;;0.40;0.40;;;;;;;15.08;100.00;97586.16;4876501;29;20055;-80
2023/07/02 00:09:20;;;;;;;0.40;0.40;;;;;;;15.05;100.00;97575.94;4843108;29;20061;-79
2023/07/02 00:11:48;;;;;;;0.40;0.40;;;;;;;15.04;100.00;97578.94;4870786;29;20053;-80
2023/07/02 00:14:15;;;;;;;0.30;0.30;;;;;;;15.02;100.00;97575.75;4876625;29;20057;-81
2023/07/02 00:16:46;;;;;;;0.30;0.30;;;;;;;14.99;100.00;97579.88;4859911;29;20045;-80
2023/07/02 00:19:16;;;;;;;0.35;0.35;;;;;;;14.95;100.00;97576.16;4874021;29;20064;-79
2023/07/02 00:21:43;;;;;;;0.30;0.30;;;;;;;14.94;100.00;97578.09;4851076;29;20045;-80
2023/07/02 00:24:10;;;;;;;0.40;0.40;;;;;;;14.91;100.00;97578.72;4857674;29;20049;-79
2023/07/02 00:26:38;;;;;;;0.40;0.40;;;;;;;14.89;100.00;97580.94;4858004;29;20089;-79
2023/07/02 00:29:06;;;;;;;0.40;0.40;;;;;;;14.88;100.00;97579.31;4857559;29;20049;-79
2023/07/02 00:31:37;;;;;;;0.40;0.40;;;;;;;14.84;100.00;97588.41;4856962;29;20050;-79
2023/07/02 00:34:04;;;;;;;0.30;0.30;;;;;;;14.81;100.00;97575.41;4861210;29;20106;-80
2023/07/02 00:36:31;;;;;;;0.40;0.40;;;;;;;14.77;100.00;97588.00;4861525;29;20050;-80
2023/07/02 00:38:58;;;;;;;0.40;0.40;;;;;;;14.74;100.00;97584.78;4859958;29;20151;-79
2023/07/02 00:41:26;;;;;;;0.30;0.30;;;;;;;14.75;100.00;97593.72;4876086;29;20076;-79
2023/07/02 00:43:56;;;;;;;0.40;0.40;;;;;;;14.73;100.00;97587.81;4862869;29;20483;-80
2023/07/02 00:46:24;;;;;;;0.40;0.40;;;;;;;14.75;100.00;97596.44;4879821;29;20049;-79
2023/07/02 00:48:54;;;;;;;0.40;0.40;;;;;;;14.76;100.00;97591.81;4847197;29;20410;-79
2023/07/02 00:51:26;;;;;;;0.40;0.40;;;;;;;14.73;100.00;97599.47;4848035;29;20135;-80
2023/07/02 00:53:58;;;;;;;0.40;0.40;;;;;;;14.72;100.00;97603.28;4879407;29;20097;-79
2023/07/02 00:56:26;;;;;;;0.40;0.40;;;;;;;14.73;100.00;97599.47;4879528;29;20516;-80
2023/07/02 00:58:58;;;;;;;0.45;0.45;;;;;;;14.69;100.00;97601.19;4879363;29;20527;-79
2023/07/02 01:01:33;;;;;;;0.40;0.40;;;;;;;14.67;100.00;97606.13;4862818;29;20053;-80
2023/07/02 01:04:07;;;;;;;0.40;0.40;;;;;;;14.60;100.00;97603.00;4862661;29;20102;-79
2023/07/02 01:06:40;;;;;;;0.40;0.40;;;;;;;14.65;100.00;97608.34;4862807;29;20470;-80
2023/07/02 01:09:09;;;;;;;0.40;0.40;;;;;;;14.61;100.00;97607.34;4866289;29;20494;-81
2023/07/02 01:11:44;;;;;;;0.38;0.38;;;;;;;14.60;100.00;97603.00;4860791;29;20153;-79
2023/07/02 01:14:19;;;;;;;0.40;0.40;;;;;;;14.57;100.00;97595.50;4844407;29;20045;-80
2023/07/02 01:16:47;;;;;;;0.40;0.40;;;;;;;14.60;100.00;97611.16;4861170;29;20053;-80
2023/07/02 01:19:18;;;;;;;0.40;0.40;;;;;;;14.59;100.00;97628.56;4829362;29;20053;-81
2023/07/02 01:21:47;;;;;;;0.40;0.40;;;;;;;14.56;100.00;97618.31;4828999;29;20114;-80
2023/07/02 01:24:16;;;;;;;0.40;0.40;;;;;;;14.57;100.00;97619.91;4843954;29;20136;-79
2023/07/02 01:26:45;;;;;;;0.40;0.40;;;;;;;14.48;100.00;97619.81;4844062;29;20132;-80
2023/07/02 01:29:16;;;;;;;0.40;0.40;;;;;;;14.49;100.00;97620.63;4860011;29;20126;-80
2023/07/02 01:31:44;;;;;;;0.40;0.40;;;;;;;14.45;100.00;97608.75;4843603;29;20081;-80
2023/07/02 01:34:12;;;;;;;0.40;0.40;;;;;;;14.49;100.00;97620.63;4843850;29;20052;-79
2023/07/02 01:36:39;;;;;;;0.40;0.40;;;;;;;14.46;100.00;97610.38;4866829;29;20144;-80
2023/07/02 01:39:12;;;;;;;0.40;0.40;;;;;;;14.46;100.00;97622.03;4878717;29;20053;-80
2023/07/02 01:41:45;;;;;;;0.40;0.40;;;;;;;14.45;100.00;97617.69;4878971;29;20144;-80
2023/07/02 01:44:12;;;;;;;0.40;0.40;;;;;;;14.49;100.00;97626.84;4861965;29;20053;-80
2023/07/02 01:46:39;;;;;;;0.40;0.40;;;;;;;14.49;100.00;97623.31;4862283;29;20603;-79
2023/07/02 01:49:06;;;;;;;0.40;0.40;;;;;;;14.48;100.00;97619.81;4878342;29;20048;-80
2023/07/02 01:51:34;;;;;;;0.50;0.50;;;;;;;14.51;100.00;97615.69;4878710;29;20150;-79
2023/07/02 01:54:01;;;;;;;0.40;0.40;;;;;;;14.52;100.00;97625.44;4878263;29;20052;-80
2023/07/02 01:56:28;;;;;;;0.40;0.40;;;;;;;14.53;100.00;97627.06;4861925;29;20543;-80
2023/07/02 01:58:55;;;;;;;0.40;0.40;;;;;;;14.54;100.00;97620.53;4876959;29;20136;-79
2023/07/02 02:01:22;;;;;;;0.40;0.40;;;;;;;14.56;100.00;97615.63;4861967;29;20128;-80
2023/07/02 02:03:49;;;;;;;0.40;0.40;;;;;;;14.58;100.00;97629.66;4878253;29;20059;-80
2023/07/02 02:06:17;;;;;;;0.40;0.40;;;;;;;14.62;100.00;97619.81;4846577;29;20060;-80
2023/07/02 02:08:45;;;;;;;0.50;0.50;;;;;;;14.64;100.00;97620.31;4848336;29;20557;-80
2023/07/02 02:11:12;;;;;;;0.40;0.40;;;;;;;14.57;100.00;97625.34;4840172;29;20053;-80
2023/07/02 02:13:42;;;;;;;0.40;0.40;;;;;;;14.68;100.00;97618.56;4841850;29;20057;-79
2023/07/02 02:16:10;;;;;;;0.30;0.30;;;;;;;14.66;100.00;97623.53;4859337;29;20046;-79
2023/07/02 02:18:37;;;;;;;0.40;0.40;;;;;;;14.72;100.00;97630.44;4843291;29;20057;-79
2023/07/02 02:21:05;;;;;;;0.50;0.50;;;;;;;14.78;100.00;97633.06;4859371;29;20049;-78
2023/07/02 02:23:32;;;;;;;0.40;0.40;;;;;;;14.80;100.00;97630.84;4859404;29;20059;-79
2023/07/02 02:25:59;;;;;;;0.40;0.40;;;;;;;14.79;100.00;97624.63;4859359;29;20106;-79
2023/07/02 02:28:31;;;;;;;0.40;0.40;;;;;;;14.88;100.00;97632.81;4842621;29;20140;-79
2023/07/02 02:30:58;;;;;;;0.40;0.40;;;;;;;14.90;100.00;97625.19;4842648;29;20061;-79
2023/07/02 02:33:27;;;;;;;0.50;0.50;;;;;;;14.96;100.00;97634.81;4853156;29;20053;-79
2023/07/02 02:35:54;;;;;;;0.40;0.40;;;;;;;15.01;100.00;97639.31;4863546;29;20117;-80
2023/07/02 02:38:21;;;;;;;0.50;0.50;;;;;;;15.06;100.00;97637.28;4859146;29;20470;-79
2023/07/02 02:40:48;;;;;;;0.40;0.40;;;;;;;15.15;100.00;97638.19;4857726;29;20077;-79
2023/07/02 02:43:20;;;;;;;0.40;0.40;;;;;;;15.19;100.00;97635.63;4857809;29;20113;-79
2023/07/02 02:45:48;;;;;;;0.45;0.45;;;;;;;15.22;100.00;97628.78;4857747;29;20073;-79
2023/07/02 02:48:15;;;;;;;0.40;0.40;;;;;;;15.28;100.00;97641.94;4842600;29;20064;-79
2023/07/02 02:50:43;;;;;;;0.40;0.40;;;;;;;15.29;100.00;97637.31;4858072;29;20753;-78
2023/07/02 02:53:10;;;;;;;0.43;0.43;;;;;;;15.31;100.00;97632.38;4858751;29;20060;-80
2023/07/02 02:55:41;;;;;;;0.40;0.40;;;;;;;15.38;100.00;97633.56;4857200;29;20080;-79
2023/07/02 02:58:08;;;;;;;0.40;0.40;;;;;;;15.46;100.00;97637.44;4857524;29;20477;-79
2023/07/02 03:00:41;;;;;;;0.50;0.50;;;;;;;15.52;100.00;97641.66;4857678;29;20776;-80
2023/07/02 03:03:11;;;;;;;0.40;0.40;;;;;;;15.53;100.00;97637.03;4859058;29;20076;-80
2023/07/02 03:05:38;;;;;;;0.40;0.40;;;;;;;15.58;100.00;97645.03;4857446;29;20057;-80
2023/07/02 03:08:05;;;;;;;0.40;0.40;;;;;;;15.61;100.00;97642.50;4855690;29;20076;-80
2023/07/02 03:10:32;;;;;;;0.40;0.40;;;;;;;15.71;100.00;97646.13;4858563;29;20110;-80
2023/07/02 03:13:03;;;;;;;0.40;0.40;;;;;;;15.82;100.00;97652.88;4858467;29;20097;-78
2023/07/02 03:15:30;;;;;;;0.40;0.40;;;;;;;15.86;100.00;97648.44;4857588;29;20053;-79
2023/07/02 03:17:57;;;;;;;0.40;0.40;;;;;;;15.88;100.00;97653.59;4858657;29;20061;-79
2023/07/02 03:20:24;;;;;;;0.40;0.40;;;;;;;15.91;100.00;97661.91;4858750;29;20106;-80
2023/07/02 03:22:51;;;;;;;0.40;0.40;;;;;;;15.88;100.00;97653.59;4857233;29;20064;-79
2023/07/02 03:25:18;;;;;;;0.40;0.40;;;;;;;15.91;100.00;97661.91;4858443;29;20196;-79
2023/07/02 03:27:48;;;;;;;0.40;0.40;;;;;;;15.94;100.00;97655.03;4858507;29;20141;-79
2023/07/02 03:30:18;;;;;;;0.40;0.40;;;;;;;15.93;99.91;97659.69;4873445;29;20420;-79
2023/07/02 03:32:45;;;;;;;0.40;0.40;;;;;;;15.99;99.54;97658.41;4860407;29;20056;-80
2023/07/02 03:35:12;;;;;;;0.40;0.40;;;;;;;16.07;99.05;97661.50;4868327;29;20055;-79
2023/07/02 03:37:41;;;;;;;0.40;0.40;;;;;;;16.08;98.05;97665.81;4860528;29;20078;-80
2023/07/02 03:40:09;;;;;;;0.50;0.50;;;;;;;16.09;98.16;97662.00;4876830;29;20056;-81
2023/07/02 03:42:41;;;;;;;0.40;0.40;;;;;;;16.17;97.51;97666.66;4876754;29;20513;-80
2023/07/02 03:45:08;;;;;;;0.40;0.40;;;;;;;16.23;96.77;97670.88;4860163;29;20580;-80
2023/07/02 03:47:35;;;;;;;0.50;0.50;;;;;;;16.26;96.12;97664.81;4860135;29;20140;-79
2023/07/02 03:50:03;;;;;;;0.30;0.30;;;;;;;16.36;95.80;97677.34;4859747;29;20060;-79
2023/07/02 03:52:30;;;;;;;0.30;0.30;;;;;;;16.52;95.00;97677.69;4876823;29;20057;-79
2023/07/02 03:54:57;;;;;;;0.40;0.40;;;;;;;16.56;93.95;97671.31;4859818;29;20509;-79
2023/07/02 03:57:27;;;;;;;0.40;0.40;;;;;;;16.63;93.55;97671.63;4876881;29;20053;-80
2023/07/02 03:59:54;;;;;;;0.40;0.40;;;;;;;16.70;92.48;97673.91;4876278;29;20057;-79
2023/07/02 04:02:23;;;;;;;0.40;0.40;;;;;;;16.78;91.39;97670.41;4876678;29;20075;-79
2023/07/02 04:04:51;;;;;;;0.40;0.40;;;;;;;16.94;91.34;97680.88;4869200;29;20050;-79
2023/07/02 04:07:18;;;;;;;0.40;0.40;;;;;;;17.16;89.84;97677.22;4844306;29;20049;-80
2023/07/02 04:09:47;;;;;;;0.40;0.40;;;;;;;17.24;88.46;97671.78;4862040;29;20076;-79
2023/07/02 04:12:15;;;;;;;0.40;0.40;;;;;;;17.36;87.14;97678.50;4861710;29;20056;-78
2023/07/02 04:14:45;;;;;;;0.40;0.40;;;;;;;17.49;86.98;97681.06;4845085;29;20056;-81
2023/07/02 04:17:15;;;;;;;0.40;0.40;;;;;;;17.55;86.08;97681.72;4845022;29;20050;-80
2023/07/02 04:19:42;;;;;;;0.40;0.40;;;;;;;17.53;85.92;97683.97;4844726;29;20053;-79
2023/07/02 04:22:09;;;;;;;0.40;0.40;;;;;;;17.53;85.92;97690.19;4861357;29;20045;-79
2023/07/02 04:24:36;;;;;;;0.40;0.40;;;;;;;17.70;85.94;97675.75;4861637;29;20049;-80
2023/07/02 04:27:03;;;;;;;0.40;0.40;;;;;;;18.04;84.46;97682.28;4847767;29;20061;-80
2023/07/02 04:29:50;;;;;;;0.40;0.40;;;;;;;18.01;83.21;97684.88;4862832;29;20568;-80
2023/07/02 04:32:17;;;;;;;0.40;0.40;;;;;;;17.89;83.63;97680.06;4879875;29;20041;-79
2023/07/02 04:34:45;;;;;;;0.40;0.40;;;;;;;17.96;82.26;97686.63;4874506;29;20061;-80
2023/07/02 04:37:15;;;;;;;0.40;0.40;;;;;;;17.90;82.41;97695.31;4861526;29;20502;-79
2023/07/02 04:39:42;;;;;;;0.40;0.40;;;;;;;17.79;82.17;97697.56;4860699;29;20057;-79
2023/07/02 04:42:13;;;;;;;0.40;0.40;;;;;;;17.80;82.49;97695.66;4861084;29;20584;-80
2023/07/02 04:44:41;;;;;;;0.40;0.40;;;;;;;17.96;81.51;97702.22;4862270;29;20475;-80
2023/07/02 04:47:11;;;;;;;0.40;0.40;;;;;;;18.04;80.96;97706.06;4861859;29;20055;-80
2023/07/02 04:49:38;;;;;;;0.40;0.40;;;;;;;18.02;81.03;97711.81;4861935;29;20113;-80
2023/07/02 04:52:08;;;;;;;0.50;0.50;;;;;;;18.23;80.52;97705.66;4861248;29;20062;-80
2023/07/02 04:54:38;;;;;;;0.50;0.50;;;;;;;18.27;79.23;97699.22;4860287;29;20049;-80
2023/07/02 04:57:05;;;;;;;0.40;0.40;;;;;;;18.29;79.13;97713.38;4859661;29;20061;-79
2023/07/02 04:59:32;;;;;;;0.40;0.40;;;;;;;18.30;79.42;97700.50;4859764;29;20064;-79
2023/07/02 05:01:59;;;;;;;0.40;0.40;;;;;;;18.42;78.68;97712.34;4860737;29;20578;-80
2023/07/02 05:04:26;;;;;;;0.40;0.40;;;;;;;18.40;78.94;97711.88;4844719;29;20118;-80
2023/07/02 05:06:55;;;;;;;0.40;0.40;;;;;;;18.43;79.04;97713.16;4860869;29;20056;-80
2023/07/02 05:09:22;;;;;;;0.40;0.40;;;;;;;18.44;78.29;97712.03;4860457;29;20081;-80
2023/07/02 05:11:49;;;;;;;0.40;0.40;;;;;;;18.44;77.95;97714.75;4860335;29;20061;-80
2023/07/02 05:14:19;;;;;;;0.40;0.40;;;;;;;18.34;77.49;97696.81;4860945;29;20136;-80
2023/07/02 05:16:46;;;;;;;0.40;0.40;;;;;;;18.46;77.56;97707.06;4844538;29;20050;-80
2023/07/02 05:19:16;;;;;;;0.40;0.40;;;;;;;18.77;76.73;97705.97;4860534;29;20087;-81
2023/07/02 05:21:43;;;;;;;0.40;0.40;;;;;;;19.14;75.34;97707.03;4852083;29;20081;-81
2023/07/02 05:24:16;;;;;;;0.40;0.40;;;;;;;19.31;74.13;97694.34;4863358;29;20541;-79
2023/07/02 05:26:47;;;;;;;0.40;0.40;;;;;;;19.35;73.48;97701.56;4863914;29;20483;-79
2023/07/02 05:29:14;;;;;;;0.40;0.40;;;;;;;19.07;74.23;97716.91;4878943;29;20068;-80
2023/07/02 05:31:41;;;;;;;0.40;0.40;;;;;;;18.94;74.41;97705.88;4879174;29;20140;-80
2023/07/02 05:34:11;;;;;;;0.40;0.40;;;;;;;19.15;74.08;97721.50;4877789;29;20501;-80
2023/07/02 05:36:47;;;;;;;0.40;0.40;;;;;;;18.97;75.20;97704.41;4860775;29;20058;-80
2023/07/02 05:39:14;;;;;;;0.40;0.40;;;;;;;19.03;75.32;97720.28;4860513;29;20053;-79
2023/07/02 05:41:42;;;;;;;0.40;0.40;;;;;;;19.01;75.21;97713.53;4859438;29;20065;-81
2023/07/02 05:44:09;;;;;;;0.40;0.40;;;;;;;19.27;74.84;97719.66;4860518;29;20494;-79
2023/07/02 05:46:41;;;;;;;0.30;0.30;;;;;;;19.18;74.33;97715.38;4844436;29;20084;-79
2023/07/02 05:49:08;;;;;;;0.40;0.40;;;;;;;18.98;74.59;97714.19;4859199;29;20053;-80
2023/07/02 05:51:37;;;;;;;0.40;0.40;;;;;;;19.14;74.11;97728.09;4858762;29;20054;-79
2023/07/02 05:54:04;;;;;;;0.40;0.40;;;;;;;19.05;74.10;97726.22;4858599;29;20054;-79
2023/07/02 05:56:32;;;;;;;0.40;0.40;;;;;;;18.93;74.55;97728.84;4860082;29;20057;-80
2023/07/02 05:59:00;;;;;;;0.38;0.38;;;;;;;18.95;74.31;97718.41;4859685;29;20065;-79
2023/07/02 06:01:29;;;;;;;0.40;0.40;;;;;;;19.18;73.74;97731.78;4859398;29;20084;-80
2023/07/02 06:03:57;;;;;;;0.40;0.40;;;;;;;19.31;73.58;97727.97;4842371;29;20052;-80
2023/07/02 06:06:24;;;;;;;0.40;0.40;;;;;;;19.27;73.31;97721.59;4812948;29;20068;-79
2023/07/02 06:08:51;;;;;;;0.40;0.40;;;;;;;19.33;72.29;97720.25;4859361;29;20073;-81
2023/07/02 06:11:18;;;;;;;0.40;0.40;;;;;;;19.43;71.06;97725.31;4859852;29;20053;-80
2023/07/02 06:13:45;;;;;;;0.40;0.40;;;;;;;19.24;71.73;97731.25;4859674;29;20114;-79
2023/07/02 06:16:12;;;;;;;0.50;0.50;;;;;;;19.72;70.48;97728.31;4859496;29;20056;-80
2023/07/02 06:18:41;;;;;;;0.40;0.40;;;;;;;20.06;69.66;97728.00;4855031;29;20053;-80
2023/07/02 06:21:08;;;;;;;0.30;0.30;;;;;;;19.97;70.91;97731.97;4861280;29;20080;-79
2023/07/02 06:23:44;;;;;;;0.40;0.40;;;;;;;19.82;70.37;97723.22;4877878;29;20072;-80
2023/07/02 06:26:12;;;;;;;0.40;0.40;;;;;;;20.00;68.68;97739.50;4877591;29;20401;-80
2023/07/02 06:28:41;;;;;;;0.40;0.40;;;;;;;20.06;68.80;97736.22;4877981;29;20111;-80
2023/07/02 06:31:12;;;;;;;0.40;0.40;;;;;;;19.80;69.86;97713.75;4877156;29;20087;-80
2023/07/02 06:33:40;;;;;;;0.30;0.30;;;;;;;19.80;70.32;97736.47;4877876;29;20057;-81
2023/07/02 06:36:08;;;;;;;0.40;0.40;;;;;;;19.78;69.61;97729.75;4861962;29;20566;-82
2023/07/02 06:38:38;;;;;;;0.40;0.40;;;;;;;19.81;68.22;97738.06;4858929;29;20442;-80
2023/07/02 06:41:05;;;;;;;0.40;0.40;;;;;;;20.07;68.34;97737.00;4858901;29;20513;-80
2023/07/02 06:43:32;;;;;;;0.40;0.40;;;;;;;20.06;68.52;97727.22;4859293;29;20053;-81
2023/07/02 06:46:02;;;;;;;0.30;0.30;;;;;;;20.26;67.08;97733.78;4859047;29;20053;-79
2023/07/02 06:48:32;;;;;;;0.38;0.38;;;;;;;20.04;66.82;97727.53;4842511;29;20060;-80
2023/07/02 06:50:59;;;;;;;0.40;0.40;;;;;;;20.27;66.05;97736.16;4858705;29;20057;-80
2023/07/02 06:53:27;;;;;;;0.40;0.40;;;;;;;20.46;65.48;97734.81;4859001;29;20140;-80
2023/07/02 06:55:54;;;;;;;0.40;0.40;;;;;;;20.22;65.79;97728.16;4842162;29;20402;-80
2023/07/02 06:58:21;;;;;;;0.40;0.40;;;;;;;20.47;66.06;97744.66;4859077;29;20148;-80
2023/07/02 07:00:49;;;;;;;0.40;0.40;;;;;;;20.53;64.52;97737.78;4859835;29;20064;-80
2023/07/02 07:03:17;;;;;;;0.40;0.40;;;;;;;20.63;63.95;97740.13;4858978;29;20054;-81
2023/07/02 07:05:44;;;;;;;0.30;0.30;;;;;;;20.47;63.40;97729.00;4859335;29;20144;-80
2023/07/02 07:08:12;;;;;;;0.40;0.40;;;;;;;20.55;62.91;97717.16;4858628;29;20045;-80
2023/07/02 07:10:40;;;;;;;0.40;0.40;;;;;;;20.82;62.87;97730.56;4858930;29;20095;-81
2023/07/02 07:13:10;;;;;;;0.40;0.40;;;;;;;21.09;61.39;97731.78;4858246;29;20057;-80
2023/07/02 07:15:38;;;;;;;0.40;0.40;;;;;;;21.09;58.97;97735.34;4842274;29;20061;-81
2023/07/02 07:18:05;;;;;;;0.30;0.30;;;;;;;21.25;59.87;97734.63;4858104;29;20060;-80
2023/07/02 07:20:33;;;;;;;0.30;0.30;;;;;;;21.26;59.10;97728.00;4858294;29;20148;-81
2023/07/02 07:23:02;;;;;;;0.30;0.30;;;;;;;21.18;57.51;97738.75;4856890;29;20197;-80
2023/07/02 07:25:29;;;;;;;0.40;0.40;;;;;;;20.97;58.12;97735.34;4858365;29;20057;-80
2023/07/02 07:27:59;;;;;;;0.30;0.30;;;;;;;21.25;58.36;97746.41;4841594;29;20140;-80
2023/07/02 07:30:29;;;;;;;0.30;0.30;;;;;;;21.29;57.49;97730.81;4841530;29;20057;-80
2023/07/02 07:32:59;;;;;;;0.40;0.40;;;;;;;21.61;56.80;97748.28;4858592;29;20501;-80
2023/07/02 07:35:30;;;;;;;0.30;0.30;;;;;;;21.24;56.24;97738.50;4842281;29;20132;-81
2023/07/02 07:37:57;;;;;;;0.30;0.30;;;;;;;21.02;56.48;97743.34;4858166;29;20057;-81
2023/07/02 07:40:25;;;;;;;0.40;0.40;;;;;;;20.95;56.08;97721.19;4858317;29;20068;-81
2023/07/02 07:43:17;;;;;;;0.40;0.40;;;;;;;21.28;56.26;97742.16;4858435;29;20045;-80
2023/07/02 07:45:44;;;;;;;0.40;0.40;;;;;;;21.62;54.58;97747.16;4858179;29;20069;-79
2023/07/02 07:48:11;;;;;;;0.40;0.40;;;;;;;21.76;54.33;97733.03;4856794;29;20475;-81
2023/07/02 07:50:41;;;;;;;0.30;0.30;;;;;;;21.85;53.78;97752.09;4846334;29;20060;-80
2023/07/02 07:53:08;;;;;;;0.30;0.30;;;;;;;21.59;54.85;97756.06;4857950;29;20045;-81
2023/07/02 07:55:38;;;;;;;0.30;0.30;;;;;;;21.29;55.96;97733.56;4827040;29;20518;-81
2023/07/02 07:58:09;;;;;;;0.35;0.35;;;;;;;21.46;57.14;97749.00;4857820;29;20641;-81
2023/07/02 08:00:37;;;;;;;0.30;0.30;;;;;;;21.43;55.84;97739.53;4858029;29;20057;-80
2023/07/02 08:03:04;;;;;;;0.30;0.30;;;;;;;21.21;54.52;97734.50;4857655;29;20052;-81
2023/07/02 08:05:34;;;;;;;0.30;0.30;;;;;;;21.11;55.20;97732.25;4841811;29;20053;-80
2023/07/02 08:08:01;;;;;;;0.30;0.30;;;;;;;21.25;54.39;97740.91;4837978;29;20087;-81
2023/07/02 08:10:28;;;;;;;0.30;0.30;;;;;;;21.16;54.72;97741.03;4823416;29;20057;-81
2023/07/02 08:12:55;;;;;;;0.40;0.40;;;;;;;21.10;55.33;97734.19;4839311;29;20580;-79
2023/07/02 08:15:23;;;;;;;0.35;0.35;;;;;;;21.18;54.93;97746.97;4854180;29;20053;-79
2023/07/02 08:17:54;;;;;;;0.40;0.40;;;;;;;21.45;55.00;97750.16;4876755;29;20057;-81
2023/07/02 08:20:24;;;;;;;0.40;0.40;;;;;;;21.48;54.19;97749.47;4877181;29;20288;-82
2023/07/02 08:22:56;;;;;;;0.50;0.50;;;;;;;21.57;54.00;97749.31;4863484;29;20498;-85
2023/07/02 08:25:27;;;;;;;0.40;0.40;;;;;;;22.00;53.26;97745.88;4838878;29;20053;-83
2023/07/02 08:27:54;;;;;;;0.30;0.30;;;;;;;22.03;53.08;97736.13;4822129;29;20054;-82
2023/07/02 08:30:21;;;;;;;0.40;0.40;;;;;;;22.31;52.42;97727.88;4839005;29;20068;-83
2023/07/02 08:32:48;;;;;;;0.40;0.40;;;;;;;22.35;52.54;97742.50;4844251;29;20054;-84
2023/07/02 08:35:15;;;;;;;0.30;0.30;;;;;;;22.17;53.17;97747.47;4852577;29;20513;-83
2023/07/02 08:37:48;;;;;;;0.30;0.30;;;;;;;21.73;53.42;97732.94;4858254;29;20061;-82
2023/07/02 08:40:17;;;;;;;0.40;0.40;;;;;;;21.90;53.81;97754.59;4857981;29;20058;-80
2023/07/02 08:42:47;;;;;;;0.50;0.50;;;;;;;22.79;51.21;97745.19;4855099;29;20049;-83
2023/07/02 08:45:17;;;;;;;0.50;0.50;;;;;;;23.67;49.87;97752.28;4849245;29;20058;-82
2023/07/02 08:47:47;;;;;;;0.50;0.50;;;;;;;24.12;47.69;97742.59;4857698;29;20075;-84
2023/07/02 08:50:16;;;;;;;0.50;0.50;;;;;;;24.13;47.02;97756.03;4859787;29;20067;-82
2023/07/02 08:52:45;;;;;;;0.40;0.40;;;;;;;23.91;47.25;97746.53;4876738;29;20045;-81
2023/07/02 08:55:12;;;;;;;0.30;0.30;;;;;;;23.32;49.05;97751.16;4855156;29;20054;-81
2023/07/02 08:57:49;;;;;;;0.30;0.30;;;;;;;23.22;48.66;97753.66;4837545;29;20140;-82
2023/07/02 09:00:17;;;;;;;0.30;0.30;;;;;;;22.80;50.04;97745.97;4861148;29;20084;-82
2023/07/02 09:02:45;;;;;;;0.35;0.35;;;;;;;22.84;50.07;97750.41;4860812;29;20056;-82
2023/07/02 09:05:12;;;;;;;0.35;0.35;;;;;;;22.57;48.32;97759.56;4860755;29;20187;-82
2023/07/02 09:07:49;;;;;;;0.60;0.60;;;;;;;23.12;47.46;97753.06;4856983;29;20152;-81
2023/07/02 09:10:30;;;;;;;0.70;0.70;;;;;;;24.39;44.37;97744.28;4830813;29;20050;-81
2023/07/02 09:13:14;;;;;;;0.70;0.70;;;;;;;24.77;43.56;97739.06;4842019;29;20257;-83
2023/07/02 09:15:44;;;;;;;0.40;0.40;;;;;;;25.14;42.85;97763.28;4878106;29;20081;-82
2023/07/02 09:18:21;;;;;;;0.40;0.40;;;;;;;24.91;44.04;97755.03;4842907;29;20140;-82
2023/07/02 09:20:52;;;;;;;0.30;0.30;;;;;;;24.50;44.73;97750.03;4846802;29;20458;-83
2023/07/02 09:23:20;;;;;;;0.30;0.30;;;;;;;23.43;46.56;97756.91;4836715;29;20050;-84
2023/07/02 09:25:49;;;;;;;0.30;0.30;;;;;;;23.02;47.96;97750.09;4842333;29;20464;-84
2023/07/02 09:28:33;;;;;;;0.30;0.30;;;;;;;22.90;48.42;97751.72;4831873;29;20056;-84
2023/07/02 09:31:00;;;;;;;0.30;0.30;;;;;;;22.61;48.88;97766.75;4825584;29;20149;-83
2023/07/02 09:33:28;;;;;;;0.30;0.30;;;;;;;22.34;50.32;97764.84;4843053;29;20054;-84
2023/07/02 09:35:58;;;;;;;0.30;0.30;;;;;;;22.21;50.10;97775.09;4854693;29;20071;-84
2023/07/02 09:38:26;;;;;;;0.30;0.30;;;;;;;21.88;50.87;97772.56;4858764;29;20518;-87
2023/07/02 09:40:54;;;;;;;0.30;0.30;;;;;;;21.82;51.00;97758.28;4861165;24;20581;-84
2023/07/02 09:43:21;;;;;;;0.40;0.40;;;;;;;21.80;50.31;97766.88;4845011;29;20520;-83
2023/07/02 09:45:50;;;;;;;0.32;0.32;;;;;;;22.50;47.11;97773.91;4828706;29;20098;-82
2023/07/02 09:48:18;;;;;;;0.80;0.80;;;;;;;24.30;43.32;97768.53;4855102;29;20057;-83
2023/07/02 09:50:58;;;;;;;0.70;0.70;;;;;;;25.20;41.04;97765.38;4852324;29;20498;-83
2023/07/02 09:53:28;;;;;;;0.70;0.70;;;;;;;26.04;37.80;97765.34;4860073;29;20057;-81
2023/07/02 09:55:55;;;;;;;0.30;0.30;;;;;;;25.21;36.89;97757.91;4843788;29;20106;-83
2023/07/02 09:58:22;;;;;;;0.70;0.70;;;;;;;24.67;38.77;97765.28;4842048;29;20512;-82
2023/07/02 10:00:50;;;;;;;0.70;0.70;;;;;;;26.02;37.32;97764.91;4851074;29;20096;-84
2023/07/02 10:03:28;;;;;;;0.60;0.60;;;;;;;26.75;36.21;97776.38;4860447;29;20053;-83
2023/07/02 10:06:06;;;;;;;0.60;0.60;;;;;;;26.89;35.76;97770.16;4861146;29;20056;-85
2023/07/02 10:08:33;;;;;;;0.50;0.50;;;;;;;27.12;35.31;97772.69;4843505;29;20712;-83
2023/07/02 10:11:11;;;;;;;0.30;0.30;;;;;;;26.30;36.44;97756.13;4859383;29;20536;-82
2023/07/02 10:13:38;;;;;;;0.30;0.30;;;;;;;25.18;37.79;97769.69;4860170;29;20118;-83
2023/07/02 10:16:06;;;;;;;0.30;0.30;;;;;;;24.00;39.97;97762.81;4859389;29;20569;-84
2023/07/02 10:18:36;;;;;;;0.30;0.30;;;;;;;23.61;41.33;97767.50;4853967;29;20126;-84
2023/07/02 10:21:17;;;;;;;0.30;0.30;;;;;;;23.10;43.14;97773.84;4859424;29;20086;-83
2023/07/02 10:23:44;;;;;;;0.30;0.30;;;;;;;22.78;44.18;97767.53;4855357;29;20144;-84
2023/07/02 10:26:16;;;;;;;0.30;0.30;;;;;;;22.63;45.10;97764.41;4843300;29;20081;-82
2023/07/02 10:28:55;;;;;;;0.30;0.30;;;;;;;22.58;46.14;97764.69;4824732;29;20525;-83
2023/07/02 10:31:22;;;;;;;0.30;0.30;;;;;;;22.60;46.60;97756.88;4836882;29;20054;-82
2023/07/02 10:33:49;;;;;;;0.50;0.50;;;;;;;23.52;44.50;97770.47;4847365;29;20050;-82
2023/07/02 10:36:23;;;;;;;0.70;0.70;;;;;;;24.90;42.12;97758.97;4854757;29;20076;-82
2023/07/02 10:38:52;;;;;;;;;;;;;;;26.72;39.84;97758.56;4854401;29;20050;-82
2023/07/02 10:41:26;;;;;;;0.70;0.70;;;;;;;26.80;37.96;97762.97;4835802;29;19928;-82
2023/07/02 10:43:53;;;;;;;0.60;0.60;;;;;;;27.19;38.20;97765.28;4859332;29;20576;-83
2023/07/02 10:46:21;;;;;;;0.60;0.60;;;;;;;27.98;36.50;97740.78;4842884;29;20050;-83
2023/07/02 10:48:55;;;;;;;0.60;0.60;;;;;;;28.30;34.74;97746.41;4857294;29;20085;-83
2023/07/02 10:51:23;;;;;;;0.50;0.50;;;;;;;28.23;34.54;97762.25;4833057;29;20144;-83
2023/07/02 10:54:02;;;;;;;0.60;0.60;;;;;;;27.56;34.80;97766.31;4824180;29;20132;-82
2023/07/02 10:56:29;;;;;;;0.60;0.60;;;;;;;27.83;34.30;97772.41;4840527;29;20064;-82
2023/07/02 10:58:59;;;;;;;0.60;0.60;;;;;;;28.52;32.90;97771.47;4849882;29;20077;-83
2023/07/02 11:01:31;;;;;;;0.30;0.30;;;;;;;27.89;33.06;97770.84;4839385;29;20064;-83
2023/07/02 11:04:04;;;;;;;0.30;0.30;;;;;;;26.22;36.46;97769.09;4858547;29;20050;-84
2023/07/02 11:06:33;;;;;;;0.20;0.20;;;;;;;24.93;38.54;97786.59;4857110;29;20076;-83
2023/07/02 11:09:03;;;;;;;0.30;0.30;;;;;;;24.11;40.33;97769.38;4858048;29;20137;-83
2023/07/02 11:11:30;;;;;;;0.30;0.30;;;;;;;23.91;41.11;97773.28;4865792;29;20061;-83
2023/07/02 11:14:01;;;;;;;0.40;0.40;;;;;;;23.75;41.53;97779.66;4840927;29;20057;-85
2023/07/02 11:16:32;;;;;;;0.50;0.50;;;;;;;24.43;41.00;97780.19;4863505;24;20144;-82
2023/07/02 11:19:09;;;;;;;0.40;0.40;;;;;;;25.55;39.83;97774.53;4860384;29;20053;-84
2023/07/02 11:21:37;;;;;;;0.25;0.25;;;;;;;25.69;39.00;97775.53;4868091;29;20520;-83
2023/07/02 11:24:06;;;;;;;0.20;0.20;;;;;;;25.04;40.20;97782.06;5004959;24;20069;-83
2023/07/02 11:26:41;;;;;;;0.20;0.20;;;;;;;24.18;42.03;97788.81;4838665;29;20133;-84
2023/07/02 11:29:11;;;;;;;0.20;0.20;;;;;;;23.64;42.94;97786.84;4839738;29;20141;-83
2023/07/02 11:31:41;;;;;;;0.22;0.22;;;;;;;23.26;43.29;97791.13;4823963;29;20050;-84
2023/07/02 11:34:23;;;;;;;0.30;0.30;;;;;;;23.36;43.49;97782.31;4842522;29;20141;-83
2023/07/02 11:37:16;;;;;;;0.40;0.40;;;;;;;23.68;42.76;97779.47;4849013;29;20543;-86
2023/07/02 11:39:43;;;;;;;0.60;0.60;;;;;;;25.41;39.66;97786.19;4830890;29;20080;-85
2023/07/02 11:42:14;;;;;;;0.70;0.70;;;;;;;26.95;36.41;97788.81;4851747;29;20057;-85